X  Chiuso Dati meteorologici dell'aviazione (METAR)     LIML Milano Linate Airport
Temperatura
52°F Temperatura
43°F Punto di rugiada
72% Umidità



Vento
12 MPH
19 KM/O
5 M/S
10 KTS



130°
SE
Condizioni attuali

Chiaro Chiaro
Pressione 1005.76 (hPa) - 29.7 (inHg)
Visibilità 6 (miglio) - 9.7 (km)
Aeroporto
Codice-Aeroporto LIML

Posizione: Milano Linate Airport
Distanza: 6 (mi)

Metar:
LIML 162150Z 13010KT CAVOK 11/06 Q1006 NOSIG

Ore: 16-04-2024 21:50 CEST